createdAt,value
2018-04-30T00:00:52.194Z,991.49
2018-04-30T00:01:52.464Z,991.47
2018-04-30T00:03:45.569Z,991.51
2018-04-30T00:04:45.240Z,991.50
2018-04-30T00:06:38.942Z,991.53
2018-04-30T00:07:38.603Z,991.59
2018-04-30T00:09:31.830Z,991.60
2018-04-30T00:10:31.543Z,991.62
2018-04-30T00:12:26.491Z,991.53
2018-04-30T00:13:25.107Z,991.53
2018-04-30T00:15:18.514Z,991.58
2018-04-30T00:16:18.195Z,991.58
2018-04-30T00:18:11.914Z,991.53
2018-04-30T00:19:11.548Z,991.58
2018-04-30T00:21:05.312Z,992.09
2018-04-30T00:22:04.922Z,992.35
2018-04-30T00:24:01.204Z,992.47
2018-04-30T00:24:58.879Z,992.35
2018-04-30T00:26:51.972Z,991.87
2018-04-30T00:27:51.652Z,991.54
2018-04-30T00:29:45.092Z,991.25
2018-04-30T00:30:45.580Z,991.21
2018-04-30T00:32:38.691Z,991.49
2018-04-30T00:33:38.392Z,991.54
2018-04-30T00:35:32.075Z,991.47
2018-04-30T00:36:32.679Z,991.41
2018-04-30T00:38:25.508Z,991.36
2018-04-30T00:39:25.134Z,991.29
2018-04-30T00:41:18.848Z,991.26
2018-04-30T00:42:19.077Z,991.31
2018-04-30T00:44:12.181Z,991.32
2018-04-30T00:45:11.859Z,991.34
2018-04-30T00:47:06.604Z,991.37
2018-04-30T00:48:06.830Z,991.37
2018-04-30T00:49:59.537Z,991.44
2018-04-30T00:50:59.263Z,991.47
2018-04-30T00:52:52.546Z,991.60
2018-04-30T00:53:52.415Z,991.61
2018-04-30T00:55:45.284Z,991.56
2018-04-30T00:56:47.502Z,991.61
2018-04-30T00:58:38.615Z,991.53
2018-04-30T00:59:38.312Z,991.49
2018-04-30T01:01:32.053Z,991.49
2018-04-30T01:02:31.661Z,991.54
2018-04-30T01:04:25.341Z,991.54
2018-04-30T01:05:25.004Z,991.56
2018-04-30T01:07:19.314Z,991.60
2018-04-30T01:08:17.895Z,991.57
2018-04-30T01:10:11.316Z,991.59
2018-04-30T01:11:11.862Z,991.54
2018-04-30T01:13:05.034Z,991.45
2018-04-30T01:14:04.172Z,991.46
2018-04-30T01:15:57.859Z,991.44
2018-04-30T01:16:57.499Z,991.46
2018-04-30T01:18:51.115Z,991.48
2018-04-30T01:19:53.446Z,991.47
2018-04-30T01:21:45.041Z,991.42
2018-04-30T01:22:44.792Z,991.40
2018-04-30T01:24:37.718Z,991.42
2018-04-30T01:25:38.179Z,991.44
2018-04-30T01:27:31.199Z,991.51
2018-04-30T01:28:30.969Z,991.47
2018-04-30T01:30:24.697Z,991.57
2018-04-30T01:31:24.404Z,991.52
2018-04-30T01:33:18.100Z,991.58
2018-04-30T01:34:17.731Z,991.55
2018-04-30T01:36:11.363Z,991.56
2018-04-30T01:37:11.628Z,991.56
2018-04-30T01:39:05.316Z,991.54
2018-04-30T01:40:04.412Z,991.54
2018-04-30T01:41:57.830Z,991.48
2018-04-30T01:42:57.423Z,991.48
2018-04-30T01:44:51.363Z,991.64
2018-04-30T01:45:50.783Z,991.71
2018-04-30T01:47:44.194Z,991.70
2018-04-30T01:48:44.123Z,991.62
2018-04-30T01:50:37.860Z,991.71
2018-04-30T01:51:37.515Z,991.70
2018-04-30T01:53:30.625Z,991.68
2018-04-30T01:54:30.401Z,991.68
2018-04-30T01:56:24.011Z,991.67
2018-04-30T01:57:23.758Z,991.61
2018-04-30T01:59:18.517Z,991.54
2018-04-30T02:00:18.677Z,991.54
2018-04-30T02:02:12.561Z,991.55
2018-04-30T02:03:14.046Z,991.58
2018-04-30T02:05:04.894Z,991.52
2018-04-30T02:06:05.153Z,991.54
2018-04-30T02:08:01.973Z,991.48
2018-04-30T02:08:58.821Z,991.47
2018-04-30T02:10:52.674Z,991.42
2018-04-30T02:11:53.692Z,991.39
2018-04-30T02:13:43.957Z,991.37
2018-04-30T02:14:44.516Z,991.41
2018-04-30T02:16:36.857Z,991.45
2018-04-30T02:17:36.861Z,991.48
2018-04-30T02:19:29.947Z,991.42
2018-04-30T02:20:29.717Z,991.45
2018-04-30T02:22:22.709Z,991.39
2018-04-30T02:23:22.575Z,991.39
2018-04-30T02:25:17.366Z,991.38
2018-04-30T02:26:15.995Z,991.40
2018-04-30T02:28:08.702Z,991.41
2018-04-30T02:29:08.430Z,991.37
2018-04-30T02:31:02.700Z,991.40
2018-04-30T02:32:01.792Z,991.36
2018-04-30T02:33:55.407Z,991.37
2018-04-30T02:34:55.177Z,991.35
2018-04-30T02:36:49.634Z,991.40
2018-04-30T02:37:50.091Z,991.43
2018-04-30T02:39:44.738Z,991.43
2018-04-30T02:40:42.963Z,991.43
2018-04-30T02:42:38.641Z,991.45
2018-04-30T02:43:37.258Z,991.48
2018-04-30T02:45:32.134Z,991.55
2018-04-30T02:46:31.189Z,991.53
2018-04-30T02:48:23.843Z,991.56
2018-04-30T02:49:23.502Z,991.59
2018-04-30T02:51:16.508Z,991.59
2018-04-30T02:52:16.918Z,991.60
2018-04-30T02:54:10.380Z,991.59
2018-04-30T02:55:10.033Z,991.57
2018-04-30T02:57:04.242Z,991.51
2018-04-30T02:58:03.160Z,991.49
2018-04-30T02:59:57.047Z,991.41
2018-04-30T03:00:56.490Z,991.41
2018-04-30T03:02:49.767Z,991.45
2018-04-30T03:03:49.438Z,991.44
2018-04-30T03:05:43.222Z,991.50
2018-04-30T03:06:42.815Z,991.53
2018-04-30T03:08:38.999Z,991.59
2018-04-30T03:09:37.191Z,991.61
2018-04-30T03:11:31.422Z,991.65
2018-04-30T03:12:31.120Z,991.67
2018-04-30T03:14:24.210Z,991.59
2018-04-30T03:15:23.951Z,991.56
2018-04-30T03:17:17.247Z,991.62
2018-04-30T03:18:16.790Z,991.57
2018-04-30T03:20:10.168Z,991.55
2018-04-30T03:21:10.704Z,991.50
2018-04-30T03:23:03.874Z,991.47
2018-04-30T03:24:03.552Z,991.53
2018-04-30T03:25:57.219Z,991.59
2018-04-30T03:26:56.857Z,991.55
2018-04-30T03:28:51.615Z,991.54
2018-04-30T03:29:53.825Z,991.51
2018-04-30T03:31:45.011Z,991.54
2018-04-30T03:32:44.608Z,991.64
2018-04-30T03:34:39.552Z,991.85
2018-04-30T03:35:38.210Z,991.96
2018-04-30T03:37:32.683Z,991.96
2018-04-30T03:38:32.326Z,992.05
2018-04-30T03:40:26.070Z,992.06
2018-04-30T03:41:25.709Z,992.03
2018-04-30T03:43:19.037Z,991.95
2018-04-30T03:44:18.696Z,991.92
2018-04-30T03:46:12.453Z,991.94
2018-04-30T03:48:26.709Z,991.96
2018-04-30T03:49:26.454Z,992.00
2018-04-30T03:51:20.232Z,992.05
2018-04-30T03:52:19.806Z,992.03
2018-04-30T03:54:13.602Z,992.04
2018-04-30T03:55:13.193Z,992.10
2018-04-30T03:57:06.431Z,992.13
2018-04-30T03:58:06.140Z,992.13
2018-04-30T04:00:01.600Z,992.21
2018-04-30T04:01:00.495Z,992.24
2018-04-30T04:02:55.312Z,992.25
2018-04-30T04:03:54.944Z,992.29
2018-04-30T04:05:48.281Z,992.33
2018-04-30T04:06:48.244Z,992.34
2018-04-30T04:08:43.452Z,992.37
2018-04-30T04:09:41.594Z,992.38
2018-04-30T04:11:34.530Z,992.40
2018-04-30T04:12:34.467Z,992.42
2018-04-30T04:14:28.251Z,992.39
2018-04-30T04:15:27.837Z,992.34
2018-04-30T04:17:21.672Z,992.32
2018-04-30T04:18:20.725Z,992.34
2018-04-30T04:20:13.914Z,992.35
2018-04-30T04:21:13.619Z,992.33
2018-04-30T04:23:07.189Z,992.32
2018-04-30T04:24:06.913Z,992.34
2018-04-30T04:26:02.230Z,992.39
2018-04-30T04:27:00.291Z,992.38
2018-04-30T04:28:54.032Z,992.37
2018-04-30T04:29:53.707Z,992.43
2018-04-30T04:31:47.436Z,992.50
2018-04-30T04:32:47.065Z,992.49
2018-04-30T04:34:41.215Z,992.59
2018-04-30T04:35:40.398Z,992.57
2018-04-30T04:37:34.077Z,992.62
2018-04-30T04:38:36.318Z,992.62
2018-04-30T04:40:29.483Z,992.66
2018-04-30T04:41:27.116Z,992.62
2018-04-30T04:43:20.750Z,992.67
2018-04-30T04:44:20.476Z,992.64
2018-04-30T04:46:16.772Z,992.63
2018-04-30T04:47:14.902Z,992.60
2018-04-30T04:49:08.519Z,992.57
2018-04-30T04:50:08.190Z,992.59
2018-04-30T04:52:02.477Z,992.60
2018-04-30T04:53:01.890Z,992.61
2018-04-30T04:54:55.343Z,992.66
2018-04-30T04:55:54.982Z,992.71
2018-04-30T04:57:48.214Z,992.76
2018-04-30T04:58:47.829Z,992.73
2018-04-30T05:00:40.793Z,992.68
2018-04-30T05:01:40.967Z,992.62
2018-04-30T05:03:34.619Z,992.63
2018-04-30T05:05:50.521Z,992.59
2018-04-30T05:06:50.108Z,992.65
2018-04-30T05:08:45.027Z,992.65
2018-04-30T05:09:44.434Z,992.66
2018-04-30T05:11:37.598Z,992.74
2018-04-30T05:12:37.332Z,992.75
2018-04-30T05:14:33.606Z,992.83
2018-04-30T05:15:30.083Z,992.85
2018-04-30T05:17:23.817Z,992.87
2018-04-30T05:18:23.586Z,992.80
2018-04-30T05:20:18.775Z,992.86
2018-04-30T05:21:16.823Z,992.88
2018-04-30T05:23:10.512Z,992.90
2018-04-30T05:24:10.196Z,992.86
2018-04-30T05:26:04.366Z,992.89
2018-04-30T05:27:03.863Z,992.94
2018-04-30T05:28:57.055Z,992.96
2018-04-30T05:29:58.528Z,993.01
2018-04-30T05:31:51.379Z,992.99
2018-04-30T05:32:51.884Z,992.97
2018-04-30T05:34:45.256Z,993.00
2018-04-30T05:35:43.714Z,992.99
2018-04-30T05:37:38.120Z,992.96
2018-04-30T05:38:38.697Z,993.05
2018-04-30T05:40:31.101Z,993.19
2018-04-30T05:41:31.020Z,993.22
2018-04-30T05:43:24.370Z,993.33
2018-04-30T05:44:24.300Z,993.34
2018-04-30T05:46:18.279Z,993.45
2018-04-30T05:47:18.732Z,993.47
2018-04-30T05:49:10.714Z,993.43
2018-04-30T05:50:10.216Z,993.53
2018-04-30T05:52:04.626Z,993.60
2018-04-30T05:53:03.595Z,993.61
2018-04-30T05:54:56.951Z,993.65
2018-04-30T05:55:56.485Z,993.68
2018-04-30T05:57:49.777Z,993.65
2018-04-30T05:58:49.441Z,993.60
2018-04-30T06:00:44.181Z,993.61
2018-04-30T06:01:43.692Z,993.59
2018-04-30T06:03:36.820Z,993.60
2018-04-30T06:04:36.553Z,993.66
2018-04-30T06:06:33.352Z,993.64
2018-04-30T06:07:30.559Z,993.61
2018-04-30T06:09:24.252Z,993.77
2018-04-30T06:10:24.248Z,993.71
2018-04-30T06:12:17.639Z,993.76
2018-04-30T06:13:17.225Z,993.70
2018-04-30T06:15:11.989Z,993.85
2018-04-30T06:16:10.634Z,993.88
2018-04-30T06:18:04.234Z,993.88
2018-04-30T06:19:03.964Z,993.85
2018-04-30T06:20:56.868Z,993.90
2018-04-30T06:21:56.814Z,993.88
2018-04-30T06:23:50.282Z,993.84
2018-04-30T06:24:50.238Z,993.93
2018-04-30T06:26:44.991Z,993.94
2018-04-30T06:27:44.140Z,993.92
2018-04-30T06:29:36.949Z,993.97
2018-04-30T06:30:36.907Z,993.94
2018-04-30T06:32:30.453Z,994.00
2018-04-30T06:33:30.303Z,993.96
2018-04-30T06:35:23.216Z,993.90
2018-04-30T06:36:23.878Z,993.93
2018-04-30T06:38:16.730Z,993.87
2018-04-30T06:39:16.579Z,993.89
2018-04-30T06:41:09.905Z,993.84
2018-04-30T06:42:09.877Z,993.90
2018-04-30T06:44:02.869Z,993.91
2018-04-30T06:45:02.749Z,993.93
2018-04-30T06:46:56.220Z,993.97
2018-04-30T06:47:55.626Z,994.02
2018-04-30T06:49:49.008Z,994.04
2018-04-30T06:50:48.978Z,994.11
2018-04-30T06:52:42.460Z,994.20
2018-04-30T06:53:42.375Z,994.28
2018-04-30T06:55:35.364Z,994.32
2018-04-30T06:56:35.248Z,994.29
2018-04-30T06:58:29.386Z,994.33
2018-04-30T06:59:28.097Z,994.30
2018-04-30T07:01:21.693Z,994.32
2018-04-30T07:02:21.475Z,994.30
2018-04-30T07:04:14.528Z,994.30
2018-04-30T07:05:14.318Z,994.33
2018-04-30T07:07:07.794Z,994.30
2018-04-30T07:08:07.692Z,994.27
2018-04-30T07:10:01.241Z,994.31
2018-04-30T07:11:01.045Z,994.33
2018-04-30T07:12:54.596Z,994.25
2018-04-30T07:13:54.984Z,994.24
2018-04-30T07:15:47.315Z,994.13
2018-04-30T07:16:47.300Z,994.21
2018-04-30T07:18:40.666Z,994.28
2018-04-30T07:19:40.640Z,994.30
2018-04-30T07:21:34.294Z,994.33
2018-04-30T07:22:34.020Z,994.25
2018-04-30T07:24:27.934Z,994.16
2018-04-30T07:25:26.878Z,994.14
2018-04-30T07:27:19.799Z,994.08
2018-04-30T07:28:19.751Z,993.96
2018-04-30T07:30:12.724Z,993.89
2018-04-30T07:31:12.653Z,993.92
2018-04-30T07:33:05.644Z,994.00
2018-04-30T07:34:05.520Z,994.06
2018-04-30T07:35:58.916Z,994.16
2018-04-30T07:36:58.887Z,994.21
2018-04-30T07:38:51.834Z,994.31
2018-04-30T07:39:51.776Z,994.29
2018-04-30T07:41:44.709Z,994.35
2018-04-30T07:42:44.646Z,994.27
2018-04-30T07:44:38.082Z,994.32
2018-04-30T07:45:38.024Z,994.23
2018-04-30T07:47:31.440Z,994.30
2018-04-30T07:48:31.431Z,994.32
2018-04-30T07:50:27.324Z,994.34
2018-04-30T07:51:24.749Z,994.34
2018-04-30T07:53:17.669Z,994.29
2018-04-30T07:54:20.208Z,994.31
2018-04-30T07:56:11.035Z,994.28
2018-04-30T07:57:11.089Z,994.30
2018-04-30T07:59:05.966Z,994.12
2018-04-30T08:00:04.377Z,994.14
2018-04-30T08:01:57.778Z,994.12
2018-04-30T08:02:57.762Z,994.19
2018-04-30T08:04:50.638Z,994.22
2018-04-30T08:05:50.655Z,994.25
2018-04-30T08:07:43.594Z,994.20
2018-04-30T08:08:44.058Z,994.21
2018-04-30T08:10:36.472Z,994.23
2018-04-30T08:11:36.433Z,994.28
2018-04-30T08:13:30.391Z,994.24
2018-04-30T08:14:30.314Z,994.24
2018-04-30T08:16:23.703Z,994.22
2018-04-30T08:17:23.671Z,994.17
2018-04-30T08:19:17.290Z,994.26
2018-04-30T08:20:17.053Z,994.34
2018-04-30T08:22:10.452Z,994.41
2018-04-30T08:23:11.064Z,994.44
2018-04-30T08:25:03.862Z,994.54
2018-04-30T08:26:03.785Z,994.55
2018-04-30T08:27:58.028Z,994.50
2018-04-30T08:28:57.162Z,994.53
2018-04-30T08:30:51.839Z,994.55
2018-04-30T08:31:51.552Z,994.49
2018-04-30T08:33:45.104Z,994.57
2018-04-30T08:34:44.984Z,994.64
2018-04-30T08:36:37.506Z,994.61
2018-04-30T08:37:37.359Z,994.68
2018-04-30T08:39:30.759Z,994.69
2018-04-30T08:40:30.654Z,994.69
2018-04-30T08:42:26.578Z,994.75
2018-04-30T08:43:24.041Z,994.73
2018-04-30T08:45:17.651Z,994.75
2018-04-30T08:46:17.386Z,994.78
2018-04-30T08:48:11.872Z,994.87
2018-04-30T08:49:11.765Z,994.81
2018-04-30T08:51:05.243Z,994.89
2018-04-30T08:52:05.135Z,994.82
2018-04-30T08:53:58.092Z,994.85
2018-04-30T08:54:58.347Z,994.86
2018-04-30T08:56:51.450Z,994.85
2018-04-30T08:57:51.395Z,994.84
2018-04-30T08:59:44.839Z,994.79
2018-04-30T09:00:44.290Z,994.75
2018-04-30T09:02:37.128Z,994.85
2018-04-30T09:03:37.111Z,994.83
2018-04-30T09:05:30.658Z,994.85
2018-04-30T09:06:30.465Z,994.78
2018-04-30T09:08:23.409Z,994.86
2018-04-30T09:09:23.399Z,994.89
2018-04-30T09:11:17.099Z,994.84
2018-04-30T09:12:16.734Z,994.87
2018-04-30T09:14:10.128Z,994.86
2018-04-30T09:15:10.095Z,994.86
2018-04-30T09:17:03.485Z,994.94
2018-04-30T09:18:03.464Z,994.95
2018-04-30T09:19:56.414Z,994.99
2018-04-30T09:20:56.336Z,994.98
2018-04-30T09:22:50.797Z,994.94
2018-04-30T09:23:49.286Z,994.97
2018-04-30T09:25:42.202Z,995.01
2018-04-30T09:26:42.124Z,995.02
2018-04-30T09:28:34.998Z,995.12
2018-04-30T09:29:35.091Z,995.10
2018-04-30T09:31:28.470Z,995.11
2018-04-30T09:32:28.330Z,995.18
2018-04-30T09:34:21.235Z,995.17
2018-04-30T09:35:21.353Z,995.15
2018-04-30T09:37:14.164Z,995.17
2018-04-30T09:38:14.056Z,995.19
2018-04-30T09:40:07.468Z,995.20
2018-04-30T09:41:07.426Z,995.20
2018-04-30T09:43:00.519Z,995.26
2018-04-30T09:44:00.311Z,995.35
2018-04-30T09:45:53.198Z,995.36
2018-04-30T09:46:53.166Z,995.33
2018-04-30T09:48:46.218Z,995.33
2018-04-30T09:49:46.077Z,995.34
2018-04-30T09:51:40.136Z,995.33
2018-04-30T09:52:39.455Z,995.42
2018-04-30T09:54:32.998Z,995.37
2018-04-30T09:55:33.393Z,995.35
2018-04-30T09:57:26.188Z,995.33
2018-04-30T09:58:26.134Z,995.27
2018-04-30T10:00:19.613Z,995.28
2018-04-30T10:01:19.036Z,995.26
2018-04-30T10:03:12.057Z,995.30
2018-04-30T10:04:11.922Z,995.26
2018-04-30T10:06:07.849Z,995.29
2018-04-30T10:07:07.761Z,995.29
2018-04-30T10:09:01.188Z,995.34
2018-04-30T10:10:01.120Z,995.31
2018-04-30T10:11:54.554Z,995.24
2018-04-30T10:12:54.516Z,995.23
2018-04-30T10:14:48.021Z,995.32
2018-04-30T10:15:47.870Z,995.25
2018-04-30T10:17:40.925Z,995.26
2018-04-30T10:18:40.744Z,995.26
2018-04-30T10:20:33.756Z,995.33
2018-04-30T10:21:33.623Z,995.24
2018-04-30T10:23:27.044Z,995.21
2018-04-30T10:24:26.995Z,995.25
2018-04-30T10:26:20.378Z,995.24
2018-04-30T10:27:20.361Z,995.29
2018-04-30T10:29:13.858Z,995.24
2018-04-30T10:30:13.729Z,995.23
2018-04-30T10:32:06.629Z,995.22
2018-04-30T10:33:06.631Z,995.25
2018-04-30T10:34:59.988Z,995.26
2018-04-30T10:35:59.965Z,995.22
2018-04-30T10:37:52.988Z,995.19
2018-04-30T10:38:52.841Z,995.22
2018-04-30T10:40:46.329Z,995.24
2018-04-30T10:41:46.239Z,995.17
2018-04-30T10:43:39.125Z,995.19
2018-04-30T10:44:39.087Z,995.16
2018-04-30T10:46:32.680Z,995.20
2018-04-30T10:47:33.028Z,995.20
2018-04-30T10:49:25.917Z,995.21
2018-04-30T10:50:26.010Z,995.22
2018-04-30T10:52:19.271Z,995.21
2018-04-30T10:53:19.191Z,995.22
2018-04-30T10:55:12.590Z,995.23
2018-04-30T10:56:12.561Z,995.17
2018-04-30T10:58:06.057Z,995.17
2018-04-30T10:59:05.939Z,995.22
2018-04-30T11:00:58.919Z,995.17
2018-04-30T11:01:58.810Z,995.07
2018-04-30T11:03:52.277Z,995.15
2018-04-30T11:04:52.169Z,995.23
2018-04-30T11:06:45.198Z,995.19
2018-04-30T11:07:45.608Z,995.15
2018-04-30T11:09:39.110Z,995.11
2018-04-30T11:10:38.426Z,995.10
2018-04-30T11:12:32.839Z,995.19
2018-04-30T11:13:33.018Z,995.18
2018-04-30T11:15:26.373Z,995.24
2018-04-30T11:16:26.167Z,995.24
2018-04-30T11:18:19.583Z,995.15
2018-04-30T11:19:19.547Z,995.16
2018-04-30T11:21:12.939Z,995.21
2018-04-30T11:22:12.946Z,995.20
2018-04-30T11:24:07.135Z,995.24
2018-04-30T11:25:05.787Z,995.26
2018-04-30T11:26:59.292Z,995.25
2018-04-30T11:27:59.156Z,995.25
2018-04-30T11:29:52.268Z,995.27
2018-04-30T11:30:52.594Z,995.34
2018-04-30T11:32:45.449Z,995.24
2018-04-30T11:33:45.422Z,995.24
2018-04-30T11:35:38.874Z,995.29
2018-04-30T11:36:38.780Z,995.39
2018-04-30T11:38:32.423Z,995.40
2018-04-30T11:39:32.171Z,995.41
2018-04-30T11:41:25.064Z,995.51
2018-04-30T11:42:25.138Z,995.49
2018-04-30T11:44:18.312Z,995.49
2018-04-30T11:45:17.923Z,995.47
2018-04-30T11:47:10.890Z,995.45
2018-04-30T11:48:11.143Z,995.52
2018-04-30T11:50:03.792Z,995.56
2018-04-30T11:51:03.692Z,995.55
2018-04-30T11:52:56.705Z,995.55
2018-04-30T11:53:56.566Z,995.58
2018-04-30T11:55:50.554Z,995.60
2018-04-30T11:56:49.940Z,995.59
2018-04-30T11:58:43.442Z,995.57
2018-04-30T11:59:43.298Z,995.60
2018-04-30T12:01:36.743Z,995.65
2018-04-30T12:02:36.698Z,995.64
2018-04-30T12:04:30.123Z,995.67
2018-04-30T12:05:30.047Z,995.55
2018-04-30T12:07:23.053Z,995.63
2018-04-30T12:08:22.959Z,995.66
2018-04-30T12:10:15.835Z,995.64
2018-04-30T12:11:15.835Z,995.70
2018-04-30T12:13:09.383Z,995.75
2018-04-30T12:14:09.183Z,995.80
2018-04-30T12:16:02.081Z,995.81
2018-04-30T12:17:02.073Z,995.71
2018-04-30T12:18:54.953Z,995.80
2018-04-30T12:19:54.934Z,995.77
2018-04-30T12:21:47.929Z,995.71
2018-04-30T12:22:47.809Z,995.73
2018-04-30T12:24:40.777Z,995.80
2018-04-30T12:25:40.682Z,995.87
2018-04-30T12:27:34.109Z,995.99
2018-04-30T12:28:34.071Z,996.00
2018-04-30T12:30:27.078Z,996.01
2018-04-30T12:31:26.978Z,996.07
2018-04-30T12:33:19.892Z,996.08
2018-04-30T12:34:19.818Z,996.07
2018-04-30T12:36:12.793Z,996.04
2018-04-30T12:37:12.700Z,996.02
2018-04-30T12:39:06.825Z,995.94
2018-04-30T12:40:06.639Z,996.01
2018-04-30T12:41:59.552Z,996.00
2018-04-30T12:42:59.516Z,996.07
2018-04-30T12:44:52.646Z,996.01
2018-04-30T12:45:52.418Z,996.04
2018-04-30T12:47:45.892Z,996.07
2018-04-30T12:48:45.283Z,996.03
2018-04-30T12:50:38.704Z,996.10
2018-04-30T12:51:38.623Z,996.16
2018-04-30T12:53:31.605Z,996.11
2018-04-30T12:54:32.087Z,996.12
2018-04-30T12:56:24.961Z,996.01
2018-04-30T12:57:24.891Z,995.97
2018-04-30T12:59:18.365Z,995.97
2018-04-30T13:00:18.256Z,996.07
2018-04-30T13:02:11.150Z,996.12
2018-04-30T13:03:11.119Z,996.18
2018-04-30T13:05:04.051Z,996.00
2018-04-30T13:06:04.006Z,995.89
2018-04-30T13:07:58.469Z,995.89
2018-04-30T13:08:57.384Z,995.91
2018-04-30T13:10:50.278Z,996.01
2018-04-30T13:11:50.241Z,996.02
2018-04-30T13:13:43.140Z,996.16
2018-04-30T13:14:43.149Z,996.10
2018-04-30T13:16:36.530Z,996.01
2018-04-30T13:17:37.062Z,996.07
2018-04-30T13:19:29.435Z,996.05
2018-04-30T13:20:29.364Z,996.03
2018-04-30T13:22:22.277Z,996.09
2018-04-30T13:23:22.257Z,996.07
2018-04-30T13:25:16.805Z,996.09
2018-04-30T13:26:16.625Z,996.16
2018-04-30T13:28:09.998Z,996.21
2018-04-30T13:29:09.993Z,996.35
2018-04-30T13:31:03.381Z,996.40
2018-04-30T13:32:03.354Z,996.58
2018-04-30T13:33:57.953Z,996.66
2018-04-30T13:34:57.737Z,996.58
2018-04-30T13:36:51.137Z,996.63
2018-04-30T13:37:51.098Z,996.67
2018-04-30T13:39:44.707Z,996.69
2018-04-30T13:40:44.531Z,996.73
2018-04-30T13:42:38.864Z,996.72
2018-04-30T13:43:38.896Z,996.77
2018-04-30T13:45:33.836Z,996.80
2018-04-30T13:46:33.191Z,996.64
2018-04-30T13:48:26.120Z,996.77
2018-04-30T13:49:26.087Z,996.76
2018-04-30T13:51:18.965Z,996.84
2018-04-30T13:52:18.953Z,996.84
2018-04-30T13:54:12.349Z,996.69
2018-04-30T13:55:12.320Z,996.78
2018-04-30T13:57:05.921Z,996.76
2018-04-30T13:58:05.755Z,996.78
2018-04-30T13:59:58.655Z,996.73
2018-04-30T14:00:58.558Z,996.73
2018-04-30T14:02:52.133Z,996.64
2018-04-30T14:03:51.927Z,996.74
2018-04-30T14:05:45.378Z,996.72
2018-04-30T14:06:45.281Z,996.70
2018-04-30T14:08:38.682Z,996.72
2018-04-30T14:09:38.643Z,996.64
2018-04-30T14:11:32.127Z,996.67
2018-04-30T14:12:31.705Z,996.60
2018-04-30T14:14:24.946Z,996.66
2018-04-30T14:15:24.900Z,996.64
2018-04-30T14:17:18.891Z,996.61
2018-04-30T14:18:18.274Z,996.60
2018-04-30T14:20:11.885Z,996.58
2018-04-30T14:21:11.644Z,996.57
2018-04-30T14:23:04.553Z,996.50
2018-04-30T14:24:04.512Z,996.58
2018-04-30T14:25:57.409Z,996.49
2018-04-30T14:26:57.398Z,996.45
2018-04-30T14:28:51.794Z,996.36
2018-04-30T14:29:52.316Z,996.40
2018-04-30T14:31:45.223Z,996.42
2018-04-30T14:32:45.118Z,996.50
2018-04-30T14:34:38.016Z,996.49
2018-04-30T14:35:37.985Z,996.47
2018-04-30T14:37:31.525Z,996.50
2018-04-30T14:38:31.370Z,996.47
2018-04-30T14:40:24.931Z,996.50
2018-04-30T14:41:24.739Z,996.47
2018-04-30T14:43:17.643Z,996.52
2018-04-30T14:44:17.602Z,996.51
2018-04-30T14:46:11.017Z,996.57
2018-04-30T14:47:10.996Z,996.54
2018-04-30T14:49:04.091Z,996.62
2018-04-30T14:50:03.850Z,996.65
2018-04-30T14:51:57.370Z,996.73
2018-04-30T14:52:57.217Z,996.84
2018-04-30T14:54:50.258Z,996.99
2018-04-30T14:55:50.096Z,996.85
2018-04-30T14:57:43.792Z,996.91
2018-04-30T14:58:43.459Z,996.93
2018-04-30T15:00:36.832Z,997.04
2018-04-30T15:01:36.344Z,997.13
2018-04-30T15:03:29.391Z,997.00
2018-04-30T15:04:29.239Z,997.01
2018-04-30T15:06:22.821Z,997.04
2018-04-30T15:07:22.656Z,996.96
2018-04-30T15:09:15.694Z,996.98
2018-04-30T15:10:15.536Z,996.96
2018-04-30T15:12:08.417Z,996.90
2018-04-30T15:13:08.402Z,996.82
2018-04-30T15:15:01.779Z,996.84
2018-04-30T15:16:01.742Z,996.81
2018-04-30T15:17:55.136Z,996.85
2018-04-30T15:18:55.115Z,996.85
2018-04-30T15:20:49.721Z,996.82
2018-04-30T15:21:48.497Z,996.83
2018-04-30T15:23:42.106Z,996.81
2018-04-30T15:24:41.846Z,996.83
2018-04-30T15:26:35.264Z,996.81
2018-04-30T15:27:35.219Z,996.79
2018-04-30T15:29:28.343Z,996.86
2018-04-30T15:30:28.091Z,996.85
2018-04-30T15:32:21.532Z,996.91
2018-04-30T15:33:21.302Z,996.79
2018-04-30T15:35:14.924Z,996.77
2018-04-30T15:36:14.654Z,996.76
2018-04-30T15:38:07.824Z,996.79
2018-04-30T15:39:08.107Z,996.76
2018-04-30T15:41:00.735Z,996.60
2018-04-30T15:42:00.402Z,996.67
2018-04-30T15:43:53.399Z,996.61
2018-04-30T15:44:53.612Z,996.65
2018-04-30T15:46:46.891Z,996.52
2018-04-30T15:47:46.684Z,996.61
2018-04-30T15:49:40.272Z,996.59
2018-04-30T15:50:40.029Z,996.49
2018-04-30T15:52:33.255Z,996.55
2018-04-30T15:53:33.187Z,996.50
2018-04-30T15:55:26.152Z,996.48
2018-04-30T15:56:26.049Z,996.45
2018-04-30T15:58:19.234Z,996.51
2018-04-30T15:59:18.945Z,996.60
2018-04-30T16:01:12.710Z,996.50
2018-04-30T16:02:12.302Z,996.48
2018-04-30T16:04:05.966Z,996.49
2018-04-30T16:05:05.733Z,996.44
2018-04-30T16:06:59.124Z,996.51
2018-04-30T16:07:59.114Z,996.58
2018-04-30T16:09:53.774Z,996.43
2018-04-30T16:10:53.469Z,996.39
2018-04-30T16:12:46.839Z,996.36
2018-04-30T16:13:46.661Z,996.46
2018-04-30T16:15:40.122Z,996.39
2018-04-30T16:16:40.043Z,996.51
2018-04-30T16:18:33.106Z,996.47
2018-04-30T16:19:32.927Z,996.52
2018-04-30T16:21:26.374Z,996.43
2018-04-30T16:22:26.280Z,996.36
2018-04-30T16:24:19.802Z,996.42
2018-04-30T16:25:19.638Z,996.49
2018-04-30T16:27:12.763Z,996.43
2018-04-30T16:28:12.620Z,996.50
2018-04-30T16:30:06.162Z,996.39
2018-04-30T16:31:05.978Z,996.41
2018-04-30T16:32:59.513Z,996.44
2018-04-30T16:33:59.353Z,996.45
2018-04-30T16:35:52.759Z,996.53
2018-04-30T16:36:53.333Z,996.40
2018-04-30T16:38:46.221Z,996.38
2018-04-30T16:40:59.694Z,996.41
2018-04-30T16:41:59.471Z,996.51
2018-04-30T16:43:54.077Z,996.37
2018-04-30T16:44:56.415Z,996.38
2018-04-30T16:46:46.727Z,996.42
2018-04-30T16:47:46.709Z,996.36
2018-04-30T16:49:40.090Z,996.44
2018-04-30T16:50:40.071Z,996.37
2018-04-30T16:52:33.747Z,996.39
2018-04-30T16:53:32.944Z,996.45
2018-04-30T16:55:27.905Z,996.42
2018-04-30T16:56:26.315Z,996.37
2018-04-30T16:58:19.869Z,996.43
2018-04-30T16:59:20.239Z,996.57
2018-04-30T17:01:14.317Z,996.63
2018-04-30T17:02:14.670Z,996.50
2018-04-30T17:04:09.248Z,996.43
2018-04-30T17:05:08.433Z,996.50
2018-04-30T17:07:02.368Z,996.38
2018-04-30T17:08:01.787Z,996.32
2018-04-30T17:09:57.218Z,996.41
2018-04-30T17:10:56.733Z,996.41
2018-04-30T17:12:49.680Z,996.38
2018-04-30T17:13:49.599Z,996.35
2018-04-30T17:15:43.583Z,996.40
2018-04-30T17:16:42.505Z,996.31
2018-04-30T17:18:36.810Z,996.45
2018-04-30T17:19:36.081Z,996.51
2018-04-30T17:21:29.556Z,996.60
2018-04-30T17:22:31.816Z,996.61
2018-04-30T17:24:22.878Z,996.65
2018-04-30T17:25:22.108Z,996.67
2018-04-30T17:27:15.816Z,996.62
2018-04-30T17:28:15.829Z,996.60
2018-04-30T17:30:08.828Z,996.51
2018-04-30T17:31:08.433Z,996.54
2018-04-30T17:33:02.160Z,996.67
2018-04-30T17:34:02.226Z,996.59
2018-04-30T17:35:56.601Z,996.52
2018-04-30T17:36:56.309Z,996.50
2018-04-30T17:38:48.993Z,996.53
2018-04-30T17:39:48.753Z,996.55
2018-04-30T17:41:42.357Z,996.43
2018-04-30T17:42:42.774Z,996.48
2018-04-30T17:44:36.232Z,996.62
2018-04-30T17:45:35.708Z,996.66
2018-04-30T17:47:29.590Z,996.59
2018-04-30T17:48:28.736Z,996.55
2018-04-30T17:50:23.568Z,996.61
2018-04-30T17:51:22.048Z,996.66
2018-04-30T17:53:16.178Z,996.69
2018-04-30T17:54:15.363Z,996.74
2018-04-30T17:56:09.069Z,996.63
2018-04-30T17:57:08.750Z,996.73
2018-04-30T17:59:02.480Z,996.48
2018-04-30T18:00:02.073Z,996.56
2018-04-30T18:01:57.213Z,996.64
2018-04-30T18:02:56.448Z,996.62